sensor_id;sensor_type;location;lat;lon;timestamp;pressure;altitude;pressure_sealevel;temperature;humidity
69460;BME280;57182;55.712;37.612;2022-10-17T00:01:07;101198.13;;;6.88;60.49
69460;BME280;57182;55.712;37.612;2022-10-17T00:03:42;101245.66;;;7.03;60.82
69460;BME280;57182;55.712;37.612;2022-10-17T00:06:33;101236.97;;;7.01;60.29
69460;BME280;57182;55.712;37.612;2022-10-17T00:10:02;101184.38;;;6.82;61.58
69460;BME280;57182;55.712;37.612;2022-10-17T00:13:48;101191.41;;;6.78;60.93
69460;BME280;57182;55.712;37.612;2022-10-17T00:17:17;101194.81;;;6.80;60.50
69460;BME280;57182;55.712;37.612;2022-10-17T00:25:08;101176.91;;;6.65;61.20
69460;BME280;57182;55.712;37.612;2022-10-17T00:28:51;101162.25;;;6.60;61.65
69460;BME280;57182;55.712;37.612;2022-10-17T00:31:38;101188.84;;;6.75;61.54
69460;BME280;57182;55.712;37.612;2022-10-17T00:35:00;101156.41;;;6.50;61.04
69460;BME280;57182;55.712;37.612;2022-10-17T00:37:42;101197.59;;;6.74;62.25
69460;BME280;57182;55.712;37.612;2022-10-17T00:40:35;101146.03;;;6.47;61.70
69460;BME280;57182;55.712;37.612;2022-10-17T00:46:33;101161.69;;;6.47;62.21
69460;BME280;57182;55.712;37.612;2022-10-17T00:52:46;101144.34;;;6.45;61.96
69460;BME280;57182;55.712;37.612;2022-10-17T00:55:30;101168.34;;;6.60;61.71
69460;BME280;57182;55.712;37.612;2022-10-17T00:58:39;101131.88;;;6.59;61.58
69460;BME280;57182;55.712;37.612;2022-10-17T01:04:45;101126.06;;;6.46;62.02
69460;BME280;57182;55.712;37.612;2022-10-17T01:08:16;101104.38;;;6.44;61.51
69460;BME280;57182;55.712;37.612;2022-10-17T01:11:45;101118.38;;;6.40;62.43
69460;BME280;57182;55.712;37.612;2022-10-17T01:25:57;101116.47;;;6.48;63.55
69460;BME280;57182;55.712;37.612;2022-10-17T01:35:36;101100.94;;;6.42;63.67
69460;BME280;57182;55.712;37.612;2022-10-17T01:38:20;101106.97;;;6.44;63.68
69460;BME280;57182;55.712;37.612;2022-10-17T01:44:32;101118.31;;;6.43;63.46
69460;BME280;57182;55.712;37.612;2022-10-17T01:47:41;101093.41;;;6.30;62.93
69460;BME280;57182;55.712;37.612;2022-10-17T01:51:18;101092.25;;;6.42;63.38
69460;BME280;57182;55.712;37.612;2022-10-17T01:54:31;101083.59;;;6.41;63.79
69460;BME280;57182;55.712;37.612;2022-10-17T01:58:16;101064.66;;;6.33;64.17
69460;BME280;57182;55.712;37.612;2022-10-17T02:02:07;101038.84;;;6.21;63.26
69460;BME280;57182;55.712;37.612;2022-10-17T02:05:14;101037.31;;;6.12;63.44
69460;BME280;57182;55.712;37.612;2022-10-17T02:08:24;101050.06;;;6.24;64.06
69460;BME280;57182;55.712;37.612;2022-10-17T02:23:09;101051.88;;;6.22;64.12
69460;BME280;57182;55.712;37.612;2022-10-17T02:26:36;101054.22;;;6.33;63.88
69460;BME280;57182;55.712;37.612;2022-10-17T02:29:29;101082.84;;;6.36;63.34
69460;BME280;57182;55.712;37.612;2022-10-17T02:41:22;101034.84;;;6.06;63.21
69460;BME280;57182;55.712;37.612;2022-10-17T03:35:37;100980.22;;;6.02;65.75
69460;BME280;57182;55.712;37.612;2022-10-17T03:43:39;100973.22;;;6.04;65.02
69460;BME280;57182;55.712;37.612;2022-10-17T03:46:57;100934.59;;;5.83;65.10
69460;BME280;57182;55.712;37.612;2022-10-17T03:50:32;100989.78;;;6.03;65.25
69460;BME280;57182;55.712;37.612;2022-10-17T03:53:15;100983.66;;;6.04;64.96
69460;BME280;57182;55.712;37.612;2022-10-17T03:56:28;100949.41;;;5.81;65.22
69460;BME280;57182;55.712;37.612;2022-10-17T03:59:57;100945.91;;;5.85;65.28
69460;BME280;57182;55.712;37.612;2022-10-17T04:03:15;100938.09;;;5.85;66.10
69460;BME280;57182;55.712;37.612;2022-10-17T04:09:51;100961.31;;;5.94;64.86
69460;BME280;57182;55.712;37.612;2022-10-17T04:12:21;100969.75;;;6.05;65.49
69460;BME280;57182;55.712;37.612;2022-10-17T04:14:56;100933.72;;;5.84;65.07
69460;BME280;57182;55.712;37.612;2022-10-17T04:17:29;100937.19;;;5.86;66.06
69460;BME280;57182;55.712;37.612;2022-10-17T04:20:08;100950.81;;;5.97;65.11
69460;BME280;57182;55.712;37.612;2022-10-17T04:22:36;100949.81;;;6.02;65.10
69460;BME280;57182;55.712;37.612;2022-10-17T04:25:06;100950.75;;;6.00;65.52
69460;BME280;57182;55.712;37.612;2022-10-17T04:27:39;100924.91;;;5.91;65.46
69460;BME280;57182;55.712;37.612;2022-10-17T04:30:13;100911.25;;;5.80;64.84
69460;BME280;57182;55.712;37.612;2022-10-17T04:32:51;100912.72;;;5.93;64.93
69460;BME280;57182;55.712;37.612;2022-10-17T04:35:20;100903.25;;;5.89;65.14
69460;BME280;57182;55.712;37.612;2022-10-17T04:37:55;100928.78;;;6.10;65.44
69460;BME280;57182;55.712;37.612;2022-10-17T04:40:48;100916.81;;;6.01;65.98
69460;BME280;57182;55.712;37.612;2022-10-17T04:43:19;100909.81;;;6.05;65.63
69460;BME280;57182;55.712;37.612;2022-10-17T04:45:50;100935.56;;;6.17;64.67
69460;BME280;57182;55.712;37.612;2022-10-17T04:48:20;100894.91;;;6.10;65.45
69460;BME280;57182;55.712;37.612;2022-10-17T04:50:59;100913.16;;;6.10;65.51
69460;BME280;57182;55.712;37.612;2022-10-17T04:53:39;100910.56;;;6.08;64.96
69460;BME280;57182;55.712;37.612;2022-10-17T04:56:15;100906.09;;;6.13;64.48
69460;BME280;57182;55.712;37.612;2022-10-17T04:58:44;100886.09;;;6.14;65.20
69460;BME280;57182;55.712;37.612;2022-10-17T05:01:21;100867.28;;;6.03;64.76
69460;BME280;57182;55.712;37.612;2022-10-17T05:04:02;100891.56;;;6.05;65.07
69460;BME280;57182;55.712;37.612;2022-10-17T05:06:40;100906.06;;;6.15;64.55
69460;BME280;57182;55.712;37.612;2022-10-17T05:09:22;100906.56;;;6.29;64.87
69460;BME280;57182;55.712;37.612;2022-10-17T05:11:53;100903.22;;;6.24;64.61
69460;BME280;57182;55.712;37.612;2022-10-17T05:14:21;100889.97;;;6.33;64.24
69460;BME280;57182;55.712;37.612;2022-10-17T05:16:53;100903.00;;;6.33;64.77
69460;BME280;57182;55.712;37.612;2022-10-17T05:19:39;100885.72;;;6.29;64.68
69460;BME280;57182;55.712;37.612;2022-10-17T05:22:13;100901.88;;;6.42;64.86
69460;BME280;57182;55.712;37.612;2022-10-17T05:24:45;100874.34;;;6.31;64.63
69460;BME280;57182;55.712;37.612;2022-10-17T05:27:20;100882.75;;;6.43;64.73
69460;BME280;57182;55.712;37.612;2022-10-17T05:30:14;100846.78;;;6.23;64.86
69460;BME280;57182;55.712;37.612;2022-10-17T05:32:44;100855.81;;;6.42;64.24
69460;BME280;57182;55.712;37.612;2022-10-17T05:35:20;100841.47;;;6.26;64.77
69460;BME280;57182;55.712;37.612;2022-10-17T05:37:56;100891.16;;;6.54;63.97
69460;BME280;57182;55.712;37.612;2022-10-17T05:40:58;100897.84;;;6.62;64.33
69460;BME280;57182;55.712;37.612;2022-10-17T05:43:47;100891.75;;;6.63;64.54
69460;BME280;57182;55.712;37.612;2022-10-17T05:46:37;100858.13;;;6.53;64.62
69460;BME280;57182;55.712;37.612;2022-10-17T05:49:16;100850.81;;;6.67;63.74
69460;BME280;57182;55.712;37.612;2022-10-17T05:52:06;100822.00;;;6.70;63.84
69460;BME280;57182;55.712;37.612;2022-10-17T05:54:47;100825.97;;;6.83;63.71
69460;BME280;57182;55.712;37.612;2022-10-17T05:57:16;100800.72;;;6.83;62.97
69460;BME280;57182;55.712;37.612;2022-10-17T05:59:51;100843.69;;;7.03;63.07
69460;BME280;57182;55.712;37.612;2022-10-17T06:02:22;100821.53;;;6.86;63.18
69460;BME280;57182;55.712;37.612;2022-10-17T06:05:17;100827.91;;;7.06;63.04
69460;BME280;57182;55.712;37.612;2022-10-17T06:09:10;100843.44;;;7.10;63.10
69460;BME280;57182;55.712;37.612;2022-10-17T06:17:13;100791.56;;;7.00;62.03
69460;BME280;57182;55.712;37.612;2022-10-17T06:20:44;100803.38;;;7.11;62.25
69460;BME280;57182;55.712;37.612;2022-10-17T06:23:42;100807.00;;;7.06;62.93
69460;BME280;57182;55.712;37.612;2022-10-17T06:26:54;100820.69;;;7.14;62.23
69460;BME280;57182;55.712;37.612;2022-10-17T06:29:35;100828.13;;;7.27;62.40
69460;BME280;57182;55.712;37.612;2022-10-17T06:32:51;100826.69;;;7.17;62.65
69460;BME280;57182;55.712;37.612;2022-10-17T06:36:48;100852.34;;;7.32;62.82
69460;BME280;57182;55.712;37.612;2022-10-17T06:39:49;100844.53;;;7.31;62.06
69460;BME280;57182;55.712;37.612;2022-10-17T06:42:38;100837.22;;;7.14;61.89
69460;BME280;57182;55.712;37.612;2022-10-17T06:45:44;100845.31;;;7.34;62.59
69460;BME280;57182;55.712;37.612;2022-10-17T06:49:29;100822.31;;;7.45;62.03
69460;BME280;57182;55.712;37.612;2022-10-17T06:52:28;100781.91;;;7.29;61.70
69460;BME280;57182;55.712;37.612;2022-10-17T06:55:30;100809.56;;;7.63;62.40
69460;BME280;57182;55.712;37.612;2022-10-17T07:02:05;100833.13;;;7.87;61.35
69460;BME280;57182;55.712;37.612;2022-10-17T07:06:14;100813.34;;;7.80;61.12
69460;BME280;57182;55.712;37.612;2022-10-17T07:18:03;100807.13;;;8.09;60.83
69460;BME280;57182;55.712;37.612;2022-10-17T07:21:23;100774.72;;;7.88;60.71
69460;BME280;57182;55.712;37.612;2022-10-17T07:24:38;100756.16;;;7.71;60.21
69460;BME280;57182;55.712;37.612;2022-10-17T07:27:52;100770.97;;;7.71;61.25
69460;BME280;57182;55.712;37.612;2022-10-17T07:31:57;100751.06;;;7.67;61.79
69460;BME280;57182;55.712;37.612;2022-10-17T07:42:05;100786.06;;;7.87;62.05
69460;BME280;57182;55.712;37.612;2022-10-17T07:44:47;100758.28;;;7.60;62.41
69460;BME280;57182;55.712;37.612;2022-10-17T07:48:57;100757.38;;;7.61;62.75
69460;BME280;57182;55.712;37.612;2022-10-17T07:52:31;100780.66;;;7.67;62.37
69460;BME280;57182;55.712;37.612;2022-10-17T07:56:17;100767.00;;;7.59;62.27
69460;BME280;57182;55.712;37.612;2022-10-17T08:04:12;100778.63;;;7.77;62.73
69460;BME280;57182;55.712;37.612;2022-10-17T08:07:20;100785.41;;;7.56;63.27
69460;BME280;57182;55.712;37.612;2022-10-17T08:38:04;100745.44;;;6.42;72.92
69460;BME280;57182;55.712;37.612;2022-10-17T09:36:39;100810.72;;;6.06;85.59
69460;BME280;57182;55.712;37.612;2022-10-17T09:39:49;100778.38;;;6.13;88.07
69460;BME280;57182;55.712;37.612;2022-10-17T10:57:03;100673.84;;;6.81;87.40
69460;BME280;57182;55.712;37.612;2022-10-17T11:26:48;100612.88;;;6.83;86.67
69460;BME280;57182;55.712;37.612;2022-10-17T11:31:12;100636.38;;;7.10;87.72
69460;BME280;57182;55.712;37.612;2022-10-17T11:39:56;100648.19;;;7.20;88.03
69460;BME280;57182;55.712;37.612;2022-10-17T11:43:15;100651.72;;;7.19;87.99
69460;BME280;57182;55.712;37.612;2022-10-17T11:54:53;100615.56;;;7.07;87.84
69460;BME280;57182;55.712;37.612;2022-10-17T12:33:36;100571.81;;;7.15;90.00
69460;BME280;57182;55.712;37.612;2022-10-17T13:56:44;100616.97;;;7.41;90.29
69460;BME280;57182;55.712;37.612;2022-10-17T14:11:02;100603.44;;;7.55;89.80
69460;BME280;57182;55.712;37.612;2022-10-17T14:34:22;100629.78;;;7.74;89.09
69460;BME280;57182;55.712;37.612;2022-10-17T14:53:58;100618.94;;;7.59;90.18
69460;BME280;57182;55.712;37.612;2022-10-17T15:08:53;100631.47;;;7.75;90.39
69460;BME280;57182;55.712;37.612;2022-10-17T15:19:35;100606.06;;;7.55;90.71
69460;BME280;57182;55.712;37.612;2022-10-17T15:23:10;100633.28;;;7.73;90.37
69460;BME280;57182;55.712;37.612;2022-10-17T15:47:32;100630.19;;;7.86;90.74
69460;BME280;57182;55.712;37.612;2022-10-17T15:51:14;100630.50;;;7.77;90.46
69460;BME280;57182;55.712;37.612;2022-10-17T15:55:04;100650.56;;;8.00;89.81
69460;BME280;57182;55.712;37.612;2022-10-17T15:58:18;100619.09;;;7.80;90.03
69460;BME280;57182;55.712;37.612;2022-10-17T16:02:18;100631.59;;;7.95;89.84
69460;BME280;57182;55.712;37.612;2022-10-17T16:09:57;100607.06;;;7.99;89.58
69460;BME280;57182;55.712;37.612;2022-10-17T16:13:49;100609.50;;;8.03;89.38
69460;BME280;57182;55.712;37.612;2022-10-17T16:17:28;100637.47;;;8.24;89.27
69460;BME280;57182;55.712;37.612;2022-10-17T16:20:43;100638.22;;;8.28;89.55
69460;BME280;57182;55.712;37.612;2022-10-17T16:44:48;100631.56;;;8.43;87.87
69460;BME280;57182;55.712;37.612;2022-10-17T16:52:09;100627.69;;;8.53;87.67
69460;BME280;57182;55.712;37.612;2022-10-17T17:04:03;100632.41;;;8.65;86.85
69460;BME280;57182;55.712;37.612;2022-10-17T17:20:20;100677.88;;;8.84;87.43
69460;BME280;57182;55.712;37.612;2022-10-17T17:23:25;100659.19;;;8.71;87.04
69460;BME280;57182;55.712;37.612;2022-10-17T17:27:13;100635.53;;;8.74;87.12
69460;BME280;57182;55.712;37.612;2022-10-17T17:34:13;100655.69;;;8.94;87.22
69460;BME280;57182;55.712;37.612;2022-10-17T17:36:57;100627.56;;;8.77;86.94
69460;BME280;57182;55.712;37.612;2022-10-17T17:43:19;100617.31;;;8.71;87.45
69460;BME280;57182;55.712;37.612;2022-10-17T17:46:23;100651.53;;;8.89;87.18
69460;BME280;57182;55.712;37.612;2022-10-17T17:53:41;100632.91;;;8.74;87.16
69460;BME280;57182;55.712;37.612;2022-10-17T17:56:19;100622.50;;;8.73;87.70
69460;BME280;57182;55.712;37.612;2022-10-17T17:59:32;100655.41;;;9.00;87.06
69460;BME280;57182;55.712;37.612;2022-10-17T18:02:03;100629.94;;;8.83;87.21
69460;BME280;57182;55.712;37.612;2022-10-17T18:04:39;100626.34;;;8.86;87.58
69460;BME280;57182;55.712;37.612;2022-10-17T18:07:11;100631.47;;;8.89;87.20
69460;BME280;57182;55.712;37.612;2022-10-17T18:13:21;100624.59;;;8.87;86.90
69460;BME280;57182;55.712;37.612;2022-10-17T18:16:01;100629.66;;;8.90;87.05
69460;BME280;57182;55.712;37.612;2022-10-17T18:18:36;100632.91;;;8.96;86.75
69460;BME280;57182;55.712;37.612;2022-10-17T18:21:07;100639.16;;;8.92;86.98
69460;BME280;57182;55.712;37.612;2022-10-17T18:23:44;100614.69;;;8.93;86.80
69460;BME280;57182;55.712;37.612;2022-10-17T18:26:14;100650.25;;;8.99;87.29
69460;BME280;57182;55.712;37.612;2022-10-17T18:28:45;100638.03;;;8.99;86.55
69460;BME280;57182;55.712;37.612;2022-10-17T18:31:17;100657.69;;;9.09;86.93
69460;BME280;57182;55.712;37.612;2022-10-17T18:33:50;100649.19;;;9.03;87.01
69460;BME280;57182;55.712;37.612;2022-10-17T18:36:23;100664.91;;;9.03;87.23
69460;BME280;57182;55.712;37.612;2022-10-17T18:38:55;100661.28;;;9.07;87.06
69460;BME280;57182;55.712;37.612;2022-10-17T18:41:24;100660.72;;;8.99;86.90
69460;BME280;57182;55.712;37.612;2022-10-17T18:43:53;100666.56;;;9.05;87.21
69460;BME280;57182;55.712;37.612;2022-10-17T18:46:27;100682.63;;;9.18;86.95
69460;BME280;57182;55.712;37.612;2022-10-17T18:49:06;100686.09;;;9.18;87.28
69460;BME280;57182;55.712;37.612;2022-10-17T18:51:36;100677.00;;;9.07;87.07
69460;BME280;57182;55.712;37.612;2022-10-17T18:54:14;100655.19;;;9.06;86.94
69460;BME280;57182;55.712;37.612;2022-10-17T18:56:48;100669.72;;;9.13;87.06
69460;BME280;57182;55.712;37.612;2022-10-17T18:59:31;100657.00;;;9.04;86.99
69460;BME280;57182;55.712;37.612;2022-10-17T19:02:52;100676.25;;;9.03;87.31
69460;BME280;57182;55.712;37.612;2022-10-17T19:05:47;100669.56;;;8.96;86.91
69460;BME280;57182;55.712;37.612;2022-10-17T19:08:32;100653.19;;;8.91;87.27
69460;BME280;57182;55.712;37.612;2022-10-17T19:11:35;100688.28;;;9.07;87.70
69460;BME280;57182;55.712;37.612;2022-10-17T19:14:36;100679.28;;;8.93;87.49
69460;BME280;57182;55.712;37.612;2022-10-17T19:17:13;100650.06;;;8.81;87.67
69460;BME280;57182;55.712;37.612;2022-10-17T19:20:21;100679.38;;;8.91;87.75
69460;BME280;57182;55.712;37.612;2022-10-17T19:22:58;100664.31;;;8.74;87.63
69460;BME280;57182;55.712;37.612;2022-10-17T19:25:27;100660.78;;;8.75;87.90
69460;BME280;57182;55.712;37.612;2022-10-17T19:28:11;100670.03;;;8.84;88.06
69460;BME280;57182;55.712;37.612;2022-10-17T19:30:48;100693.16;;;8.95;88.43
69460;BME280;57182;55.712;37.612;2022-10-17T19:33:27;100649.69;;;8.69;88.13
69460;BME280;57182;55.712;37.612;2022-10-17T19:36:25;100671.38;;;8.72;87.99
69460;BME280;57182;55.712;37.612;2022-10-17T19:39:06;100680.88;;;8.75;87.95
69460;BME280;57182;55.712;37.612;2022-10-17T19:41:48;100653.47;;;8.62;88.37
69460;BME280;57182;55.712;37.612;2022-10-17T19:44:24;100659.78;;;8.56;88.23
69460;BME280;57182;55.712;37.612;2022-10-17T19:46:54;100669.25;;;8.60;88.99
69460;BME280;57182;55.712;37.612;2022-10-17T19:49:43;100655.41;;;8.57;88.76
69460;BME280;57182;55.712;37.612;2022-10-17T19:52:30;100648.53;;;8.54;88.09
69460;BME280;57182;55.712;37.612;2022-10-17T19:55:07;100678.47;;;8.69;89.22
69460;BME280;57182;55.712;37.612;2022-10-17T19:57:55;100675.44;;;8.58;88.08
69460;BME280;57182;55.712;37.612;2022-10-17T20:00:34;100665.09;;;8.55;88.64
69460;BME280;57182;55.712;37.612;2022-10-17T20:03:28;100685.63;;;8.65;88.61
69460;BME280;57182;55.712;37.612;2022-10-17T20:06:00;100685.25;;;8.53;89.27
69460;BME280;57182;55.712;37.612;2022-10-17T20:08:30;100696.13;;;8.64;89.20
69460;BME280;57182;55.712;37.612;2022-10-17T20:11:26;100695.13;;;8.68;89.44
69460;BME280;57182;55.712;37.612;2022-10-17T20:14:04;100673.34;;;8.44;89.07
69460;BME280;57182;55.712;37.612;2022-10-17T20:16:35;100656.13;;;8.39;89.53
69460;BME280;57182;55.712;37.612;2022-10-17T20:19:18;100692.69;;;8.63;88.94
69460;BME280;57182;55.712;37.612;2022-10-17T20:21:59;100687.19;;;8.48;89.15
69460;BME280;57182;55.712;37.612;2022-10-17T20:24:30;100668.88;;;8.48;88.87
69460;BME280;57182;55.712;37.612;2022-10-17T20:27:04;100675.00;;;8.47;90.01
69460;BME280;57182;55.712;37.612;2022-10-17T20:30:04;100696.69;;;8.50;90.38
69460;BME280;57182;55.712;37.612;2022-10-17T20:32:42;100679.66;;;8.39;89.56
69460;BME280;57182;55.712;37.612;2022-10-17T20:35:23;100677.28;;;8.33;89.35
69460;BME280;57182;55.712;37.612;2022-10-17T20:38:00;100687.09;;;8.49;88.96
69460;BME280;57182;55.712;37.612;2022-10-17T20:40:40;100720.91;;;8.55;89.91
69460;BME280;57182;55.712;37.612;2022-10-17T20:43:25;100728.13;;;8.49;90.33
69460;BME280;57182;55.712;37.612;2022-10-17T20:46:08;100694.56;;;8.37;89.59
69460;BME280;57182;55.712;37.612;2022-10-17T20:53:17;100707.56;;;8.38;90.23
69460;BME280;57182;55.712;37.612;2022-10-17T20:56:12;100698.84;;;8.39;90.15
69460;BME280;57182;55.712;37.612;2022-10-17T20:58:56;100688.84;;;8.25;90.58
69460;BME280;57182;55.712;37.612;2022-10-17T21:01:30;100672.34;;;8.23;89.77
69460;BME280;57182;55.712;37.612;2022-10-17T21:04:05;100679.78;;;8.36;89.39
69460;BME280;57182;55.712;37.612;2022-10-17T21:07:08;100676.72;;;8.23;90.25
69460;BME280;57182;55.712;37.612;2022-10-17T21:09:41;100673.13;;;8.27;89.43
69460;BME280;57182;55.712;37.612;2022-10-17T21:12:14;100694.56;;;8.37;89.97
69460;BME280;57182;55.712;37.612;2022-10-17T21:15:11;100702.34;;;8.38;89.62
69460;BME280;57182;55.712;37.612;2022-10-17T21:17:39;100682.03;;;8.21;89.99
69460;BME280;57182;55.712;37.612;2022-10-17T21:20:15;100698.53;;;8.47;90.08
69460;BME280;57182;55.712;37.612;2022-10-17T21:22:48;100659.28;;;8.23;90.06
69460;BME280;57182;55.712;37.612;2022-10-17T21:25:41;100670.47;;;8.29;90.13
69460;BME280;57182;55.712;37.612;2022-10-17T21:28:16;100656.47;;;8.30;89.40
69460;BME280;57182;55.712;37.612;2022-10-17T21:31:25;100651.97;;;8.33;89.65
69460;BME280;57182;55.712;37.612;2022-10-17T21:34:14;100662.81;;;8.46;89.61
69460;BME280;57182;55.712;37.612;2022-10-17T21:37:03;100647.00;;;8.27;89.32
69460;BME280;57182;55.712;37.612;2022-10-17T21:39:42;100653.97;;;8.27;89.34
69460;BME280;57182;55.712;37.612;2022-10-17T21:42:21;100685.34;;;8.50;89.07
69460;BME280;57182;55.712;37.612;2022-10-17T21:45:07;100697.47;;;8.52;88.66
69460;BME280;57182;55.712;37.612;2022-10-17T21:48:21;100692.16;;;8.54;88.92
69460;BME280;57182;55.712;37.612;2022-10-17T21:51:01;100695.72;;;8.53;88.44
69460;BME280;57182;55.712;37.612;2022-10-17T21:53:48;100660.44;;;8.40;88.79
69460;BME280;57182;55.712;37.612;2022-10-17T21:56:18;100656.97;;;8.39;88.80
69460;BME280;57182;55.712;37.612;2022-10-17T21:59:36;100680.00;;;8.53;88.82
69460;BME280;57182;55.712;37.612;2022-10-17T22:02:24;100644.31;;;8.29;88.25
69460;BME280;57182;55.712;37.612;2022-10-17T22:05:13;100636.53;;;8.25;88.40
69460;BME280;57182;55.712;37.612;2022-10-17T22:07:43;100655.41;;;8.35;88.63
69460;BME280;57182;55.712;37.612;2022-10-17T22:10:20;100673.41;;;8.43;88.41
69460;BME280;57182;55.712;37.612;2022-10-17T22:12:55;100658.06;;;8.34;88.61
69460;BME280;57182;55.712;37.612;2022-10-17T22:15:39;100637.19;;;8.32;88.79
69460;BME280;57182;55.712;37.612;2022-10-17T22:18:07;100667.63;;;8.35;88.57
69460;BME280;57182;55.712;37.612;2022-10-17T22:21:09;100665.72;;;8.38;88.65
69460;BME280;57182;55.712;37.612;2022-10-17T22:23:46;100640.28;;;8.18;88.68
69460;BME280;57182;55.712;37.612;2022-10-17T22:26:43;100612.50;;;8.16;87.78
69460;BME280;57182;55.712;37.612;2022-10-17T22:29:27;100644.38;;;8.25;87.87
69460;BME280;57182;55.712;37.612;2022-10-17T22:32:06;100642.81;;;8.21;87.70
69460;BME280;57182;55.712;37.612;2022-10-17T22:34:41;100646.13;;;8.27;87.48
69460;BME280;57182;55.712;37.612;2022-10-17T22:37:13;100678.09;;;8.35;88.56
69460;BME280;57182;55.712;37.612;2022-10-17T22:39:55;100626.84;;;8.06;87.51
69460;BME280;57182;55.712;37.612;2022-10-17T22:42:27;100653.34;;;8.20;87.62
69460;BME280;57182;55.712;37.612;2022-10-17T22:45:05;100624.03;;;8.10;87.42
69460;BME280;57182;55.712;37.612;2022-10-17T22:47:57;100628.41;;;8.10;87.62
69460;BME280;57182;55.712;37.612;2022-10-17T22:50:48;100631.47;;;8.21;87.31
69460;BME280;57182;55.712;37.612;2022-10-17T22:53:32;100638.06;;;8.33;86.46
69460;BME280;57182;55.712;37.612;2022-10-17T22:56:17;100622.63;;;8.25;86.61
69460;BME280;57182;55.712;37.612;2022-10-17T22:58:51;100666.19;;;8.49;86.78
69460;BME280;57182;55.712;37.612;2022-10-17T23:01:46;100652.09;;;8.53;86.17
69460;BME280;57182;55.712;37.612;2022-10-17T23:04:22;100633.63;;;8.35;86.66
69460;BME280;57182;55.712;37.612;2022-10-17T23:07:00;100648.50;;;8.56;85.76
69460;BME280;57182;55.712;37.612;2022-10-17T23:09:47;100666.50;;;8.63;85.75
69460;BME280;57182;55.712;37.612;2022-10-17T23:12:30;100656.19;;;8.59;86.18
69460;BME280;57182;55.712;37.612;2022-10-17T23:15:06;100647.56;;;8.57;86.20
69460;BME280;57182;55.712;37.612;2022-10-17T23:17:48;100645.69;;;8.60;85.49
69460;BME280;57182;55.712;37.612;2022-10-17T23:20:30;100607.09;;;8.44;85.80
69460;BME280;57182;55.712;37.612;2022-10-17T23:23:07;100625.97;;;8.52;85.71
69460;BME280;57182;55.712;37.612;2022-10-17T23:25:40;100636.31;;;8.55;85.60
69460;BME280;57182;55.712;37.612;2022-10-17T23:28:23;100611.03;;;8.54;85.60
69460;BME280;57182;55.712;37.612;2022-10-17T23:31:18;100641.63;;;8.53;85.55
69460;BME280;57182;55.712;37.612;2022-10-17T23:33:58;100619.38;;;8.42;85.63
69460;BME280;57182;55.712;37.612;2022-10-17T23:36:31;100657.81;;;8.63;85.31
69460;BME280;57182;55.712;37.612;2022-10-17T23:39:07;100650.06;;;8.60;85.68
69460;BME280;57182;55.712;37.612;2022-10-17T23:41:40;100661.50;;;8.57;85.73
69460;BME280;57182;55.712;37.612;2022-10-17T23:44:24;100623.38;;;8.29;85.75
69460;BME280;57182;55.712;37.612;2022-10-17T23:47:09;100652.59;;;8.40;85.55
69460;BME280;57182;55.712;37.612;2022-10-17T23:50:01;100636.91;;;8.40;86.45
69460;BME280;57182;55.712;37.612;2022-10-17T23:52:33;100635.38;;;8.34;86.28
69460;BME280;57182;55.712;37.612;2022-10-17T23:55:08;100620.47;;;8.36;86.13
69460;BME280;57182;55.712;37.612;2022-10-17T23:57:36;100611.84;;;8.34;86.01
